Spriggs Payne Airport

Jump to: basic info | weather | frequencies | runways | comments

Related pages: nearby airports | nearby navaids | notams | map

Basic information (top)

Codes: MLW GLMR
Location: lon 6.289060, lat -10.758700, elev 25 ft / 8 m msl
Status: medium_airport
Scheduled airline service: yes
Links: Wikipedia Mobile

Weather (top)

Current conditions for Roberts International Airport 24nm (44km) E (rec'd 2015/03/29 00:00Z):

GLRB 290000Z 01006KT 8000 -TSRA FEW006 BKN012 FEW023CB 25/23 Q1015 RMK CB-N/SW/W/NW TEMPO TSRA

Airport forecast for Roberts International Airport 24nm (44km) E (rec'd 2015/03/28 00:51Z):

TAF GLRB 282200Z 2900/3006 22010KT 9999 BKN018 
      TEMPO 2901/2905 00000KT 9000 NSC 
      BECMG 2906/2908 04005KT 6000 SCT010 SCT100

Frequencies (top)

Verify before use: may be inaccurate or out of date.

APP: 124.5 MHz (ROBERTS APP)
TWR: 118.7 MHz (SPRIGGS TWR)

Runways (top)

05/23: 6,000 x 100 ft (1,829 x 30 m) — paved — lighted — threshold 05 displaced 200 ft (61 m) — threshold 23 displaced 200 ft (61 m)

Latest comments (top)

No comments yet for Spriggs Payne Airport

More... (top)

See also NOTAMs and nearby airports and navaids, or visit the Spriggs Payne Airport page at the main OurAirports website..